Time;durP1;ratioP1;P1;durP2;ratioP2;P2;SDS_P1;SDS_P2;PMS_P1;PMS_P2;Temp;Humidity;BMP_temperature;BMP_pressure;BME280_temperature;BME280_humidity;BME280_pressure;Samples;Min_cycle;Max_cycle;Signal;HPM_P1;HPM_P2
2023/03/17 00:00:34;;;;;;;7.55;4.60;;;;;;;9.59;72.53;99922.38;8277786;28;20484;-54
2023/03/17 00:04:35;;;;;;;9.65;5.00;;;;;;;9.52;72.47;99938.28;8275968;28;20037;-60
2023/03/17 00:08:36;;;;;;;10.90;4.70;;;;;;;9.56;72.52;99946.94;8290403;28;20041;-60
2023/03/17 00:12:36;;;;;;;12.45;5.70;;;;;;;9.55;72.42;99943.41;8280740;28;20034;-61
2023/03/17 00:16:41;;;;;;;6.95;4.70;;;;;;;9.60;71.72;99946.50;8306548;28;20038;-60
2023/03/17 00:20:42;;;;;;;9.32;5.63;;;;;;;9.66;70.97;99955.84;8290979;28;20369;-58
2023/03/17 00:24:43;;;;;;;9.93;4.22;;;;;;;9.62;70.97;99960.72;8289710;28;20056;-58
2023/03/17 00:28:44;;;;;;;8.43;5.25;;;;;;;9.50;71.28;99971.81;8289192;28;20057;-58
2023/03/17 00:32:45;;;;;;;5.07;2.60;;;;;;;9.48;71.11;99979.22;8266776;28;20151;-60
2023/03/17 00:36:48;;;;;;;6.20;3.00;;;;;;;9.41;71.59;99988.88;8265852;28;20047;-58
2023/03/17 00:40:50;;;;;;;6.28;3.80;;;;;;;9.40;71.27;99992.59;8242692;28;20073;-59
2023/03/17 00:44:51;;;;;;;4.25;2.83;;;;;;;9.38;71.69;99995.44;8253596;28;20505;-58
2023/03/17 00:48:51;;;;;;;8.02;2.60;;;;;;;9.31;71.98;99996.16;8259975;28;20441;-58
2023/03/17 00:52:55;;;;;;;5.55;3.28;;;;;;;9.31;71.98;99988.06;8260372;28;20034;-58
2023/03/17 00:56:55;;;;;;;6.38;2.70;;;;;;;9.35;72.05;99984.06;8257217;28;20038;-57
2023/03/17 01:00:56;;;;;;;6.25;3.10;;;;;;;9.31;72.42;99971.88;8259593;28;20046;-57
2023/03/17 01:04:59;;;;;;;4.80;2.75;;;;;;;9.36;71.97;99975.84;8287636;28;20038;-57
2023/03/17 01:09:00;;;;;;;8.15;2.45;;;;;;;9.33;72.02;99959.13;8292749;28;20516;-57
2023/03/17 01:13:01;;;;;;;3.85;2.50;;;;;;;9.23;72.36;99952.88;8280318;28;20409;-57
2023/03/17 01:17:02;;;;;;;6.93;2.28;;;;;;;9.22;72.46;99953.88;8259362;28;20065;-57
2023/03/17 01:21:03;;;;;;;4.15;2.70;;;;;;;9.19;72.33;99951.47;8259578;28;20042;-57
2023/03/17 01:25:04;;;;;;;4.93;2.25;;;;;;;9.22;72.00;99941.25;8259888;28;20050;-52
2023/03/17 01:29:06;;;;;;;10.45;2.47;;;;;;;9.26;72.00;99933.72;8260233;28;20050;-51
2023/03/17 01:33:09;;;;;;;5.63;2.53;;;;;;;9.28;71.89;99899.34;8270554;28;20046;-51
2023/03/17 01:37:10;;;;;;;3.80;2.70;;;;;;;9.30;71.83;99886.59;8289493;28;20096;-52
2023/03/17 01:41:11;;;;;;;6.90;2.92;;;;;;;9.36;71.48;99910.25;8299963;28;20369;-58
2023/03/17 01:45:51;;;;;;;3.70;2.60;;;;;;;9.48;70.74;99911.75;8261883;28;20031;-57
2023/03/17 01:49:52;;;;;;;5.47;2.95;;;;;;;9.55;70.61;99899.41;8250350;28;20061;-53
2023/03/17 01:53:53;;;;;;;4.32;2.33;;;;;;;9.54;70.44;99886.88;8259206;28;20034;-53
2023/03/17 01:57:55;;;;;;;8.10;3.63;;;;;;;9.42;71.32;99871.88;8258113;28;20121;-53
2023/03/17 02:02:02;;;;;;;5.88;2.90;;;;;;;9.44;70.95;99869.91;8277102;28;20428;-52
2023/03/17 02:06:06;;;;;;;7.90;3.03;;;;;;;9.30;71.79;99879.31;8296185;28;20428;-54
2023/03/17 02:10:07;;;;;;;5.10;2.53;;;;;;;9.29;71.33;99887.56;8297740;28;20042;-52
2023/03/17 02:14:11;;;;;;;;;;;;;;;9.24;71.94;99885.31;8276452;28;20042;-53
2023/03/17 02:18:12;;;;;;;6.63;2.55;;;;;;;9.20;72.10;99877.66;8279942;28;19929;-53
2023/03/17 02:22:14;;;;;;;6.65;2.72;;;;;;;9.10;72.98;99874.16;8265091;28;20038;-53
2023/03/17 02:26:22;;;;;;;5.50;3.05;;;;;;;9.12;73.04;99899.13;8264155;28;20062;-53
2023/03/17 02:30:23;;;;;;;4.32;2.85;;;;;;;9.04;72.94;99899.88;8263868;28;20117;-53
2023/03/17 02:34:24;;;;;;;5.45;2.38;;;;;;;8.95;73.51;99900.75;8287742;28;20033;-57
2023/03/17 02:38:25;;;;;;;5.30;2.55;;;;;;;8.87;73.89;99886.25;8296250;28;20037;-55
2023/03/17 02:42:25;;;;;;;5.10;2.97;;;;;;;8.74;75.04;99880.34;8288935;28;20045;-57
2023/03/17 02:46:26;;;;;;;7.82;3.30;;;;;;;8.52;76.10;99878.81;8264030;28;20120;-57
2023/03/17 02:50:28;;;;;;;6.50;3.28;;;;;;;8.41;76.27;99878.09;8263918;28;20045;-57
2023/03/17 02:54:28;;;;;;;5.78;2.60;;;;;;;8.45;76.18;99869.59;8231656;28;20053;-57
2023/03/17 02:58:29;;;;;;;6.13;2.85;;;;;;;8.35;76.70;99873.31;8230575;28;20564;-57
2023/03/17 03:02:30;;;;;;;6.57;3.08;;;;;;;8.46;76.16;99881.22;8267145;28;20052;-57
2023/03/17 03:06:30;;;;;;;4.63;2.88;;;;;;;8.44;76.17;99888.59;8295873;28;20038;-59
2023/03/17 03:10:31;;;;;;;6.63;3.05;;;;;;;8.39;76.44;99875.59;8295452;28;20393;-57
2023/03/17 03:14:31;;;;;;;5.72;3.10;;;;;;;8.28;77.18;99881.09;8269498;28;20524;-57
2023/03/17 03:18:32;;;;;;;6.97;3.00;;;;;;;8.30;77.07;99867.50;8255432;28;20074;-57
2023/03/17 03:22:32;;;;;;;5.45;3.15;;;;;;;8.26;77.19;99866.09;8229907;28;20054;-58
2023/03/17 03:26:33;;;;;;;7.55;3.13;;;;;;;8.33;77.06;99872.59;8230309;28;20038;-57
2023/03/17 03:30:35;;;;;;;5.78;2.85;;;;;;;8.22;77.73;99872.69;8230548;28;20039;-57
2023/03/17 03:34:35;;;;;;;11.73;3.65;;;;;;;8.20;77.95;99858.53;8230524;28;20489;-57
2023/03/17 03:38:36;;;;;;;4.35;2.75;;;;;;;8.17;77.61;99854.28;8229365;28;20468;-57
2023/03/17 03:42:36;;;;;;;5.30;3.20;;;;;;;8.05;78.53;99852.69;8229985;28;20042;-53
2023/03/17 03:46:37;;;;;;;4.78;3.10;;;;;;;7.92;78.88;99881.75;8227810;28;20049;-52
2023/03/17 03:50:37;;;;;;;5.35;3.00;;;;;;;7.86;79.20;99879.59;8229807;28;20047;-53
2023/03/17 03:54:38;;;;;;;6.90;2.85;;;;;;;7.79;79.62;99876.63;8229976;28;20413;-53
2023/03/17 03:58:39;;;;;;;6.70;3.10;;;;;;;7.78;79.21;99877.59;8228965;28;20054;-52
2023/03/17 04:02:40;;;;;;;4.60;2.63;;;;;;;7.81;79.09;99874.63;8264776;28;20053;-52
2023/03/17 04:06:41;;;;;;;5.13;2.70;;;;;;;7.90;78.87;99881.88;8294312;28;20030;-53
2023/03/17 04:10:42;;;;;;;5.20;2.75;;;;;;;7.87;78.93;99879.47;8267443;28;20039;-51
2023/03/17 04:14:43;;;;;;;4.85;2.80;;;;;;;7.82;79.13;99865.59;8254576;28;20117;-51
2023/03/17 04:18:44;;;;;;;5.20;3.38;;;;;;;7.98;78.10;99876.66;8259311;28;20551;-51
2023/03/17 04:22:45;;;;;;;10.00;3.65;;;;;;;7.98;77.96;99871.28;8259374;28;20504;-52
2023/03/17 04:26:46;;;;;;;5.63;3.38;;;;;;;7.98;78.11;99875.81;8260469;28;20400;-53
2023/03/17 04:30:47;;;;;;;7.60;3.47;;;;;;;7.91;78.26;99875.53;8259953;28;20061;-53
2023/03/17 04:34:47;;;;;;;6.88;3.53;;;;;;;7.73;79.33;99863.75;8287207;28;20499;-51
2023/03/17 04:38:48;;;;;;;3.85;2.28;;;;;;;7.82;78.88;99876.34;8292289;28;20051;-53
2023/03/17 04:42:49;;;;;;;8.27;2.90;;;;;;;7.84;79.02;99874.38;8282116;28;20038;-54
2023/03/17 04:46:49;;;;;;;9.90;3.38;;;;;;;7.84;78.78;99868.97;8259916;28;20488;-57
2023/03/17 04:50:50;;;;;;;6.25;2.25;;;;;;;7.94;78.31;99852.84;8259678;28;20038;-54
2023/03/17 04:54:50;;;;;;;3.58;2.45;;;;;;;7.95;78.45;99866.16;8260727;28;20061;-51
2023/03/17 04:58:51;;;;;;;5.50;2.90;;;;;;;7.86;78.91;99871.53;8260286;28;20097;-53
2023/03/17 05:02:52;;;;;;;3.42;2.60;;;;;;;7.80;78.74;99867.56;8285801;28;20038;-52
2023/03/17 05:06:52;;;;;;;4.75;3.03;;;;;;;7.75;79.35;99869.81;8292490;28;20041;-53
2023/03/17 05:10:57;;;;;;;6.85;3.03;;;;;;;7.75;79.41;99869.81;8291714;28;20034;-53
2023/03/17 05:14:57;;;;;;;4.45;2.47;;;;;;;7.74;79.37;99862.75;8264200;28;20038;-52
2023/03/17 05:18:58;;;;;;;6.13;2.70;;;;;;;7.57;80.53;99874.16;8260153;28;20045;-52
2023/03/17 05:22:58;;;;;;;4.60;2.55;;;;;;;7.60;80.78;99876.56;8259893;28;20143;-52
2023/03/17 05:26:59;;;;;;;10.25;3.15;;;;;;;7.76;79.98;99868.84;8259898;28;20039;-53
2023/03/17 05:30:59;;;;;;;4.18;2.95;;;;;;;7.88;78.91;99862.34;8258842;28;20048;-53
2023/03/17 05:35:01;;;;;;;6.22;3.20;;;;;;;7.88;79.12;99854.28;8288105;28;20041;-53
2023/03/17 05:39:04;;;;;;;7.60;2.67;;;;;;;7.82;79.28;99860.22;8292749;28;20046;-52
2023/03/17 05:43:04;;;;;;;4.70;2.90;;;;;;;7.95;78.76;99855.41;8286044;28;20519;-53
2023/03/17 05:47:06;;;;;;;6.43;3.40;;;;;;;7.96;78.93;99862.47;8265680;28;20420;-53
2023/03/17 05:51:07;;;;;;;10.75;2.83;;;;;;;8.02;78.37;99855.69;8264177;28;20142;-53
2023/03/17 05:55:08;;;;;;;7.00;3.13;;;;;;;8.09;78.08;99852.28;8266363;28;20046;-54
2023/03/17 05:59:09;;;;;;;7.65;2.75;;;;;;;8.05;78.25;99856.25;8236602;28;20082;-53
2023/03/17 06:03:10;;;;;;;4.95;2.72;;;;;;;8.11;78.16;99859.38;8255500;28;20050;-53
2023/03/17 06:07:10;;;;;;;8.23;3.72;;;;;;;8.07;78.78;99867.75;8246520;28;20064;-53
2023/03/17 06:11:11;;;;;;;6.22;2.97;;;;;;;8.08;78.49;99853.28;8236098;28;20034;-53
2023/03/17 06:15:12;;;;;;;6.43;2.58;;;;;;;8.22;78.05;99856.53;8260160;28;20042;-53
2023/03/17 06:19:12;;;;;;;6.75;2.67;;;;;;;8.34;77.42;99850.06;8258102;28;20067;-53
2023/03/17 06:23:13;;;;;;;4.88;2.40;;;;;;;8.48;77.04;99858.53;8242670;28;20034;-59
2023/03/17 06:27:13;;;;;;;4.88;2.92;;;;;;;8.61;76.11;99847.47;8245066;28;20066;-58
2023/03/17 06:31:14;;;;;;;6.55;2.50;;;;;;;8.71;75.54;99833.00;8267827;28;20057;-58
2023/03/17 06:35:15;;;;;;;4.80;2.92;;;;;;;8.82;75.33;99840.06;8265705;28;20055;-53
2023/03/17 06:39:17;;;;;;;4.13;2.38;;;;;;;8.87;74.84;99843.13;8256621;28;20074;-52
2023/03/17 06:43:18;;;;;;;4.15;2.30;;;;;;;8.89;75.35;99833.06;8265065;28;20161;-53
2023/03/17 06:47:21;;;;;;;5.70;2.50;;;;;;;8.91;75.18;99855.34;8286522;28;20531;-52
2023/03/17 06:51:22;;;;;;;6.95;2.35;;;;;;;8.96;75.33;99847.66;8288277;28;20456;-52
2023/03/17 06:55:22;;;;;;;5.88;2.88;;;;;;;9.04;75.18;99856.72;8273157;28;20038;-53
2023/03/17 06:59:23;;;;;;;19.52;9.10;;;;;;;9.16;74.80;99857.38;8258245;28;20035;-52
2023/03/17 07:03:24;;;;;;;9.88;5.82;;;;;;;9.30;74.32;99856.91;8275226;28;20045;-52
2023/03/17 07:07:26;;;;;;;5.72;4.35;;;;;;;9.47;73.74;99858.81;8292299;28;20042;-54
2023/03/17 07:11:28;;;;;;;7.63;2.80;;;;;;;9.57;73.44;99867.69;8267455;28;20042;-52
2023/03/17 07:15:33;;;;;;;4.63;2.40;;;;;;;9.72;73.06;99847.28;8247103;28;20448;-53
2023/03/17 07:19:34;;;;;;;3.88;2.40;;;;;;;9.87;72.57;99845.78;8257065;28;20046;-52
2023/03/17 07:23:35;;;;;;;5.65;2.58;;;;;;;9.99;72.40;99847.25;8269441;28;20049;-53
2023/03/17 07:27:35;;;;;;;11.88;3.10;;;;;;;10.12;72.30;99841.53;8288366;28;20061;-58
2023/03/17 07:31:37;;;;;;;6.50;3.25;;;;;;;10.22;72.33;99834.19;8258756;28;20069;-58
2023/03/17 07:35:38;;;;;;;2.90;2.03;;;;;;;10.42;71.65;99847.38;8290878;28;20041;-58
2023/03/17 07:39:38;;;;;;;7.05;2.63;;;;;;;10.59;70.69;99849.22;8290843;28;20124;-58
2023/03/17 07:43:39;;;;;;;4.47;2.33;;;;;;;10.68;70.26;99842.84;8261196;28;20047;-58
2023/03/17 07:47:39;;;;;;;4.50;2.78;;;;;;;10.87;70.03;99853.47;8251870;28;20518;-58
2023/03/17 07:51:42;;;;;;;4.47;2.55;;;;;;;11.01;69.62;99847.47;8258506;28;20042;-58
2023/03/17 07:55:42;;;;;;;5.55;2.30;;;;;;;11.02;69.33;99851.88;8270786;28;20038;-58
2023/03/17 07:59:43;;;;;;;3.38;2.22;;;;;;;11.03;69.76;99850.84;8256731;28;20159;-54
2023/03/17 08:03:43;;;;;;;4.10;2.78;;;;;;;11.17;69.92;99855.69;8274335;28;20580;-54
2023/03/17 08:07:44;;;;;;;5.53;2.33;;;;;;;11.38;70.22;99848.00;8290182;28;20041;-53
2023/03/17 08:11:44;;;;;;;6.63;2.80;;;;;;;11.47;69.69;99841.59;8284564;28;20060;-54
2023/03/17 08:15:45;;;;;;;6.40;2.15;;;;;;;11.69;70.48;99840.22;8257784;28;20121;-54
2023/03/17 08:19:46;;;;;;;7.88;2.40;;;;;;;11.88;69.59;99857.03;8257456;28;20043;-54
2023/03/17 08:23:47;;;;;;;6.45;2.38;;;;;;;12.25;69.93;99853.03;8230960;28;20070;-54
2023/03/17 08:27:48;;;;;;;8.52;2.90;;;;;;;12.77;68.95;99857.09;8240495;28;20172;-54
2023/03/17 08:31:48;;;;;;;3.85;2.35;;;;;;;13.08;66.91;99849.97;8255874;28;20050;-54
2023/03/17 08:35:49;;;;;;;4.53;2.63;;;;;;;13.09;66.73;99846.25;8283038;28;20042;-54
2023/03/17 08:39:49;;;;;;;5.03;2.40;;;;;;;13.23;67.20;99848.25;8281143;28;20052;-54
2023/03/17 08:43:50;;;;;;;3.78;2.17;;;;;;;13.32;67.68;99828.19;8248143;28;20552;-55
2023/03/17 08:47:52;;;;;;;3.00;2.28;;;;;;;13.48;67.00;99831.69;8254232;28;20153;-56
2023/03/17 08:51:53;;;;;;;9.10;2.50;;;;;;;13.57;67.16;99824.38;8258075;28;20045;-54
2023/03/17 08:55:55;;;;;;;4.07;1.70;;;;;;;13.69;67.60;99825.66;8256916;28;20046;-55
2023/03/17 08:59:56;;;;;;;5.03;2.20;;;;;;;13.75;67.02;99833.09;8256499;28;20053;-53
2023/03/17 09:03:57;;;;;;;4.93;2.42;;;;;;;13.82;66.40;99836.81;8277717;28;20045;-55
2023/03/17 09:07:57;;;;;;;4.45;1.77;;;;;;;13.99;66.10;99843.03;8291014;28;20120;-55
2023/03/17 09:11:58;;;;;;;6.35;2.10;;;;;;;14.01;66.65;99847.25;8269109;28;20039;-54
2023/03/17 09:16:00;;;;;;;3.65;2.00;;;;;;;14.09;66.93;99836.31;8278197;28;20568;-60
2023/03/17 09:20:00;;;;;;;7.63;2.47;;;;;;;14.28;66.53;99838.63;8264552;28;20035;-60
2023/03/17 09:24:01;;;;;;;3.28;1.98;;;;;;;14.26;66.80;99829.78;8263466;28;20034;-60
2023/03/17 09:28:03;;;;;;;3.38;2.00;;;;;;;14.52;67.41;99813.09;8262996;28;20049;-60
2023/03/17 09:32:04;;;;;;;4.25;2.33;;;;;;;14.70;67.08;99827.22;8268403;28;20460;-60
2023/03/17 09:36:05;;;;;;;8.52;2.20;;;;;;;14.81;66.14;99827.63;8260912;28;20306;-61
2023/03/17 09:40:08;;;;;;;9.02;2.33;;;;;;;15.14;67.16;99836.31;8259648;28;20053;-60
2023/03/17 09:44:36;;;;;;;5.90;2.10;;;;;;;15.90;65.73;99827.75;8259894;28;20445;-60
2023/03/17 09:48:48;;;;;;;4.43;1.90;;;;;;;16.33;63.72;99829.50;8258857;28;20042;-59
2023/03/17 09:52:51;;;;;;;7.47;2.25;;;;;;;16.39;63.96;99812.34;8266000;28;20038;-60
2023/03/17 09:57:00;;;;;;;4.82;2.13;;;;;;;16.45;62.19;99812.44;8259368;28;20073;-59
2023/03/17 10:01:04;;;;;;;6.53;2.10;;;;;;;16.47;62.11;99815.81;8260848;28;20046;-59
2023/03/17 10:05:30;;;;;;;6.05;2.05;;;;;;;16.49;61.74;99830.13;8264347;28;20545;-60
2023/03/17 10:09:40;;;;;;;6.10;2.00;;;;;;;16.68;61.12;99831.34;8276605;28;20037;-59
2023/03/17 10:13:53;;;;;;;8.10;2.25;;;;;;;16.82;60.75;99841.34;8279856;28;20443;-53
2023/03/17 10:17:54;;;;;;;3.58;2.00;;;;;;;16.93;60.13;99835.34;8281111;28;20046;-53
2023/03/17 10:21:59;;;;;;;4.75;1.58;;;;;;;16.89;58.74;99834.03;8260560;28;20100;-53
2023/03/17 10:26:07;;;;;;;6.25;2.00;;;;;;;17.15;57.94;99836.97;8266011;28;20042;-53
2023/03/17 10:30:16;;;;;;;6.60;2.15;;;;;;;18.02;56.49;99825.28;8290544;28;20136;-53
2023/03/17 10:34:20;;;;;;;5.40;1.98;;;;;;;19.28;53.42;99823.38;8291946;28;20091;-53
2023/03/17 10:38:22;;;;;;;3.25;1.38;;;;;;;19.58;52.77;99801.78;8291228;28;20045;-54
2023/03/17 10:42:27;;;;;;;4.32;1.65;;;;;;;19.93;51.55;99798.47;8285687;28;20034;-53
2023/03/17 10:46:29;;;;;;;5.57;1.80;;;;;;;20.66;50.44;99788.78;8284151;28;20491;-55
2023/03/17 10:50:33;;;;;;;3.50;1.80;;;;;;;21.14;50.24;99800.88;8291473;28;20041;-54
2023/03/17 10:54:35;;;;;;;3.45;1.40;;;;;;;21.77;49.54;99769.28;8281615;28;20048;-54
2023/03/17 10:58:40;;;;;;;4.85;1.63;;;;;;;21.40;48.10;99791.50;8290527;28;20045;-54
2023/03/17 11:02:45;;;;;;;3.05;1.55;;;;;;;20.81;48.77;99790.13;8287060;28;20416;-54
2023/03/17 11:06:51;;;;;;;3.95;1.50;;;;;;;20.13;50.25;99795.69;8291099;28;20041;-54
2023/03/17 11:10:55;;;;;;;3.72;1.52;;;;;;;19.85;52.66;99793.25;8290247;28;20038;-54
2023/03/17 11:15:00;;;;;;;4.38;1.50;;;;;;;20.00;51.33;99784.75;8274838;28;20038;-55
2023/03/17 11:19:04;;;;;;;4.82;1.92;;;;;;;20.01;50.98;99775.44;8289982;28;20443;-55
2023/03/17 11:23:45;;;;;;;4.80;1.92;;;;;;;20.84;49.98;99778.69;8260764;28;20046;-55
2023/03/17 11:28:06;;;;;;;3.88;1.55;;;;;;;20.36;50.33;99768.50;8211349;28;21068;-54
2023/03/17 11:32:37;;;;;;;4.53;1.83;;;;;;;19.47;52.04;99770.41;8278217;28;20072;-55
2023/03/17 11:37:15;;;;;;;5.70;1.55;;;;;;;20.60;51.10;99773.19;8286610;28;20045;-55
2023/03/17 11:41:34;;;;;;;4.90;1.27;;;;;;;20.49;51.19;99762.94;8262195;28;20452;-55
2023/03/17 11:46:01;;;;;;;4.10;1.40;;;;;;;19.38;51.64;99758.84;8209761;28;20042;-55
2023/03/17 11:50:26;;;;;;;3.38;1.95;;;;;;;19.21;54.55;99757.56;8265320;28;20129;-54
2023/03/17 11:54:56;;;;;;;7.47;3.15;;;;;;;19.39;53.10;99749.53;8288868;28;20530;-54
2023/03/17 11:59:01;;;;;;;4.82;2.53;;;;;;;19.55;54.04;99752.88;8285559;28;20252;-54
2023/03/17 12:03:16;;;;;;;6.63;2.83;;;;;;;19.43;53.98;99759.00;8281721;28;20057;-54
2023/03/17 12:07:21;;;;;;;5.72;1.77;;;;;;;19.74;52.92;99760.16;8287638;28;20042;-54
2023/03/17 12:11:27;;;;;;;4.57;1.65;;;;;;;19.24;54.38;99761.75;8280094;28;20070;-54
2023/03/17 12:15:35;;;;;;;4.70;2.00;;;;;;;19.29;54.52;99759.28;8273506;28;20041;-54
2023/03/17 12:19:41;;;;;;;2.95;1.50;;;;;;;19.02;54.74;99763.94;8288664;28;20034;-54
2023/03/17 12:28:19;;;;;;;4.82;1.83;;;;;;;19.16;54.35;99735.44;8314128;28;20405;-54
2023/03/17 12:32:28;;;;;;;5.35;1.60;;;;;;;19.95;53.37;99721.44;8311721;28;20065;-53
2023/03/17 12:36:28;;;;;;;4.20;1.25;;;;;;;19.98;53.50;99721.00;8317800;28;20109;-52
2023/03/17 12:40:46;;;;;;;2.78;1.40;;;;;;;19.85;53.19;99715.59;8307094;28;20037;-53
2023/03/17 12:50:18;;;;;;;6.03;1.60;;;;;;;19.44;53.92;99714.09;8373027;27;20353;-54
2023/03/17 12:54:23;;;;;;;4.00;1.40;;;;;;;20.00;52.65;99705.16;8383614;28;20348;-54
2023/03/17 13:02:38;;;;;;;4.25;1.45;;;;;;;19.48;53.68;99707.13;8339483;27;20373;-54
2023/03/17 13:06:44;;;;;;;4.68;1.45;;;;;;;19.17;54.47;99706.13;8329875;28;20044;-53
2023/03/17 13:10:50;;;;;;;4.03;1.60;;;;;;;19.28;55.71;99703.59;8322236;28;20040;-53
2023/03/17 13:14:50;;;;;;;3.50;1.45;;;;;;;19.09;55.67;99695.44;8328333;28;20038;-54
2023/03/17 13:19:06;;;;;;;3.75;1.50;;;;;;;19.43;56.26;99695.94;8316918;28;20041;-54
2023/03/17 13:23:14;;;;;;;2.60;1.38;;;;;;;19.38;56.80;99690.31;8305472;28;20046;-53
2023/03/17 13:27:40;;;;;;;8.15;2.13;;;;;;;19.65;56.23;99687.41;8327986;28;20112;-53
2023/03/17 13:31:41;;;;;;;4.63;1.60;;;;;;;19.48;54.64;99694.47;8339910;28;20045;-53
2023/03/17 13:36:08;;;;;;;2.63;1.88;;;;;;;19.31;55.15;99703.16;8316486;28;20034;-57
2023/03/17 13:45:05;;;;;;;4.57;0.93;;;;;;;19.49;54.13;99692.34;8409573;27;20488;-57
2023/03/17 13:49:28;;;;;;;4.43;1.50;;;;;;;19.48;54.97;99691.75;8415496;27;20495;-57
2023/03/17 13:53:34;;;;;;;2.42;1.02;;;;;;;19.44;56.42;99692.16;8400527;27;20495;-57
2023/03/17 13:57:37;;;;;;;6.28;1.48;;;;;;;19.63;56.60;99678.56;8417615;27;20460;-57
2023/03/17 14:01:53;;;;;;;3.35;1.45;;;;;;;19.50;55.18;99674.00;8414970;27;20039;-57
2023/03/17 14:05:54;;;;;;;4.68;1.20;;;;;;;19.40;56.43;99668.97;8411484;27;20117;-53
2023/03/17 14:09:58;;;;;;;3.80;1.58;;;;;;;19.26;55.81;99661.88;8416708;27;20124;-52
2023/03/17 14:14:28;;;;;;;4.25;1.23;;;;;;;19.02;55.21;99659.81;8417543;27;20361;-51
2023/03/17 14:18:32;;;;;;;3.15;1.27;;;;;;;18.98;55.81;99636.66;8416816;27;20525;-52
2023/03/17 14:22:42;;;;;;;3.40;1.02;;;;;;;18.93;54.89;99650.16;8417499;27;20037;-52
2023/03/17 14:26:42;;;;;;;2.63;1.10;;;;;;;18.87;55.35;99659.22;8416839;28;20040;-52
2023/03/17 14:30:53;;;;;;;7.57;2.15;;;;;;;18.82;56.35;99669.16;8416484;28;20039;-51
2023/03/17 14:34:56;;;;;;;3.55;1.50;;;;;;;18.69;57.50;99672.75;8408641;27;20037;-52
2023/03/17 14:38:57;;;;;;;4.63;1.13;;;;;;;18.62;58.22;99668.34;8416098;27;20384;-52
2023/03/17 14:42:57;;;;;;;3.20;1.40;;;;;;;18.50;59.16;99673.63;8413126;27;20123;-53
2023/03/17 14:47:01;;;;;;;6.00;1.42;;;;;;;18.20;59.83;99669.59;8394315;27;20419;-52
2023/03/17 14:51:06;;;;;;;7.32;1.60;;;;;;;18.00;59.88;99662.44;8382877;28;20033;-52
2023/03/17 14:55:14;;;;;;;2.78;0.98;;;;;;;17.99;59.71;99642.44;8364251;28;20047;-51
2023/03/17 14:59:21;;;;;;;3.90;1.67;;;;;;;17.99;59.42;99677.16;8361227;28;20037;-53
2023/03/17 15:03:26;;;;;;;4.45;1.25;;;;;;;17.76;59.50;99677.53;8393108;28;20040;-51
2023/03/17 15:07:31;;;;;;;3.28;1.30;;;;;;;17.60;59.28;99670.53;8393077;28;20510;-53
2023/03/17 15:11:36;;;;;;;;;;;;;;;17.50;59.10;99667.38;8390287;28;20293;-57
2023/03/17 15:15:40;;;;;;;4.47;1.38;;;;;;;17.52;58.81;99686.28;8388707;28;19931;-57
2023/03/17 15:19:45;;;;;;;6.05;1.13;;;;;;;17.35;59.32;99657.59;8376156;28;20041;-57
2023/03/17 15:23:47;;;;;;;3.38;1.38;;;;;;;17.24;59.81;99696.47;8372460;28;20453;-57
2023/03/17 15:27:49;;;;;;;3.83;1.35;;;;;;;17.12;59.84;99684.41;8382775;28;20526;-58
2023/03/17 15:31:49;;;;;;;2.08;1.42;;;;;;;16.96;60.14;99691.03;8387529;28;20121;-57
2023/03/17 15:35:50;;;;;;;3.85;1.38;;;;;;;16.97;59.58;99680.97;8386649;28;20032;-56
2023/03/17 15:39:52;;;;;;;5.57;1.60;;;;;;;16.96;59.96;99682.03;8385139;28;20044;-57
2023/03/17 15:43:53;;;;;;;4.55;1.35;;;;;;;16.90;59.89;99686.38;8387793;28;20064;-57
2023/03/17 15:47:54;;;;;;;8.70;1.85;;;;;;;16.72;59.70;99685.25;8374688;28;20587;-57
2023/03/17 15:51:54;;;;;;;4.30;1.77;;;;;;;16.62;59.88;99677.38;8369549;27;20067;-56
2023/03/17 15:55:55;;;;;;;5.35;1.63;;;;;;;16.38;61.04;99671.53;8374655;27;20043;-57
2023/03/17 15:59:55;;;;;;;5.93;1.50;;;;;;;16.37;61.60;99694.38;8388385;27;20490;-57
2023/03/17 16:03:56;;;;;;;6.63;1.83;;;;;;;16.09;61.93;99671.69;8399514;27;20405;-57
2023/03/17 16:07:56;;;;;;;7.00;2.72;;;;;;;15.96;62.70;99674.31;8384587;28;20036;-54
2023/03/17 16:11:57;;;;;;;8.15;3.22;;;;;;;15.98;62.14;99686.69;8394774;27;20039;-54
2023/03/17 16:16:04;;;;;;;5.28;2.92;;;;;;;15.88;61.80;99688.06;8418125;27;20033;-52
2023/03/17 16:20:05;;;;;;;8.85;2.05;;;;;;;15.51;63.29;99654.56;8379494;28;20259;-59
2023/03/17 16:24:05;;;;;;;4.85;2.50;;;;;;;15.52;62.97;99667.16;8383338;27;20273;-60
2023/03/17 16:28:24;;;;;;;3.13;1.60;;;;;;;15.53;63.25;99679.72;8383844;27;20207;-53
2023/03/17 16:32:24;;;;;;;5.43;1.50;;;;;;;15.65;63.44;99721.78;8380502;27;20444;-54
2023/03/17 16:36:25;;;;;;;5.05;1.70;;;;;;;15.58;63.96;99700.94;8380247;27;20462;-53
2023/03/17 16:40:32;;;;;;;3.00;1.40;;;;;;;15.29;66.48;99742.69;8369775;27;20440;-53
2023/03/17 16:44:32;;;;;;;6.63;1.35;;;;;;;15.15;66.40;99746.25;8369376;28;20128;-54
2023/03/17 16:48:33;;;;;;;6.00;1.80;;;;;;;15.31;65.28;99740.63;8374752;27;20102;-54
2023/03/17 16:52:33;;;;;;;9.13;1.95;;;;;;;15.05;67.35;99751.16;8379222;28;20448;-54
2023/03/17 16:56:34;;;;;;;7.00;1.98;;;;;;;14.34;73.33;99740.00;8382676;27;20051;-54
2023/03/17 17:00:34;;;;;;;3.47;1.73;;;;;;;13.82;77.62;99755.31;8384509;27;20051;-53
2023/03/17 17:04:37;;;;;;;6.57;2.25;;;;;;;13.65;78.29;99746.41;8386931;27;20406;-54
2023/03/17 17:08:37;;;;;;;8.60;2.83;;;;;;;13.58;79.32;99739.16;8370109;27;20032;-54
2023/03/17 17:12:38;;;;;;;4.90;2.15;;;;;;;13.82;76.64;99744.47;8385956;27;20039;-53
2023/03/17 17:16:39;;;;;;;6.78;2.03;;;;;;;14.17;75.24;99746.56;8392875;27;20052;-53
2023/03/17 17:20:40;;;;;;;11.13;5.10;;;;;;;14.21;76.30;99737.00;8385181;28;20044;-52
2023/03/17 17:24:41;;;;;;;7.93;3.10;;;;;;;14.10;75.71;99726.56;8384697;28;20048;-54
2023/03/17 17:28:41;;;;;;;4.22;1.95;;;;;;;13.84;79.44;99731.50;8384957;28;20053;-54
2023/03/17 17:32:42;;;;;;;7.55;2.13;;;;;;;13.77;78.19;99735.97;8384252;28;20383;-59
2023/03/17 17:36:43;;;;;;;9.15;2.65;;;;;;;13.91;77.25;99765.13;8385192;28;20550;-59
2023/03/17 17:40:43;;;;;;;8.38;3.40;;;;;;;13.95;77.70;99760.13;8384672;28;20055;-59
2023/03/17 17:44:44;;;;;;;10.55;3.65;;;;;;;13.91;78.01;99786.00;8384053;28;20044;-59
2023/03/17 17:48:45;;;;;;;5.95;4.03;;;;;;;13.88;78.67;99798.06;8384460;28;20498;-59
2023/03/17 17:52:45;;;;;;;8.85;4.72;;;;;;;13.87;77.93;99796.38;8372596;28;20041;-60
2023/03/17 17:56:46;;;;;;;9.20;3.53;;;;;;;13.88;76.73;99811.66;8372703;28;20040;-60
2023/03/17 18:00:47;;;;;;;7.75;3.53;;;;;;;13.95;76.70;99809.06;8379618;28;20093;-60
2023/03/17 18:04:48;;;;;;;10.75;3.35;;;;;;;13.60;79.12;99777.84;8369977;28;20040;-59
2023/03/17 18:08:49;;;;;;;13.57;3.38;;;;;;;13.46;83.39;99816.63;8375595;28;20119;-59
2023/03/17 18:12:49;;;;;;;23.52;11.13;;;;;;;13.36;82.60;99807.84;8362648;28;20066;-59
2023/03/17 18:16:50;;;;;;;12.00;5.65;;;;;;;13.28;83.59;99811.44;8378549;28;20555;-57
2023/03/17 18:20:52;;;;;;;10.10;4.70;;;;;;;13.15;82.21;99815.72;8375360;28;20692;-59
2023/03/17 18:24:53;;;;;;;9.73;4.68;;;;;;;13.11;83.42;99803.50;8381244;28;20036;-59
2023/03/17 18:28:53;;;;;;;10.80;4.10;;;;;;;13.09;83.77;99811.81;8383675;28;20072;-60
2023/03/17 18:32:59;;;;;;;13.38;4.22;;;;;;;13.09;83.40;99814.53;8387505;28;20405;-59
2023/03/17 18:37:00;;;;;;;9.30;4.03;;;;;;;13.04;84.03;99805.22;8384722;28;20051;-59
2023/03/17 18:41:02;;;;;;;5.75;3.00;;;;;;;13.09;83.78;99798.25;8362539;28;20495;-59
2023/03/17 18:45:05;;;;;;;6.03;2.80;;;;;;;13.21;83.12;99798.72;8383116;28;20064;-53
2023/03/17 18:49:07;;;;;;;8.55;3.53;;;;;;;13.18;83.17;99805.34;8382847;28;20032;-52
2023/03/17 18:53:08;;;;;;;5.72;2.70;;;;;;;13.05;84.06;99815.06;8373168;28;20033;-52
2023/03/17 18:57:08;;;;;;;9.35;3.85;;;;;;;13.09;83.98;99810.97;8374278;28;20591;-53
2023/03/17 19:01:09;;;;;;;6.05;3.17;;;;;;;13.04;83.83;99813.34;8388587;28;20712;-54
2023/03/17 19:05:10;;;;;;;9.60;4.47;;;;;;;13.08;83.16;99820.13;8385097;28;20075;-53
2023/03/17 19:09:11;;;;;;;6.28;3.17;;;;;;;13.12;83.35;99821.50;8375757;28;20178;-54
2023/03/17 19:13:12;;;;;;;7.85;3.50;;;;;;;13.12;83.29;99818.78;8369973;28;20090;-52
2023/03/17 19:17:12;;;;;;;12.55;5.05;;;;;;;13.11;82.99;99817.06;8372544;28;20444;-52
2023/03/17 19:21:13;;;;;;;7.18;4.03;;;;;;;13.15;83.22;99810.28;8387578;28;20041;-54
2023/03/17 19:25:15;;;;;;;8.23;3.90;;;;;;;12.94;83.37;99812.69;8375088;28;20061;-51
2023/03/17 19:29:17;;;;;;;7.97;3.80;;;;;;;12.93;83.65;99805.56;8372295;28;20527;-54